Kankakee, Illinois
Current Conditions -  °F | °C
As of 11:15 PM on Sunday 19 Oct 2014 (Local Time) from KIKK Reporting Station
Overcast Overcast  
Wind Chill: 46°   Ceiling: 8500
Heat Index: 50°   Visibility: 10mi
Dew Point: 44°   Wind: 9mph
Humidity: 82%   Direction: 200°SSW
Pressure: 29.99"   Gusts: NA
Location:  41.12°N, 87.86°W
Report Text: KIKK 200415Z AUTO 20008KT 10SM OVC085 10/07 A2999 RMK AO2 T00990069
Loading
Personal Weather Stations






























Interactive Weather Map New forecast layout! Learn more

10-Day Weather Forecast

Advertisements
Track Severe Weather on mobile